createdAt,value
2018-11-03T00:03:34.103Z,17.73
2018-11-03T00:08:56.242Z,19.03
2018-11-03T00:14:18.364Z,18.43
2018-11-03T00:19:40.489Z,18.77
2018-11-03T00:25:02.438Z,16.17
2018-11-03T00:30:24.498Z,17.13
2018-11-03T00:35:46.373Z,23.80
2018-11-03T00:41:08.485Z,21.13
2018-11-03T00:46:30.362Z,22.37
2018-11-03T00:51:52.570Z,18.53
2018-11-03T00:57:14.498Z,19.73
2018-11-03T01:02:36.561Z,15.67
2018-11-03T01:07:59.666Z,21.97
2018-11-03T01:13:21.464Z,18.80
2018-11-03T01:18:43.630Z,17.80
2018-11-03T01:24:05.411Z,19.50
2018-11-03T01:29:27.643Z,18.03
2018-11-03T01:34:49.426Z,18.07
2018-11-03T01:40:12.690Z,20.13
2018-11-03T01:45:34.915Z,19.53
2018-11-03T01:50:57.073Z,18.37
2018-11-03T01:56:18.926Z,19.67
2018-11-03T02:01:41.193Z,19.33
2018-11-03T02:07:03.059Z,22.57
2018-11-03T02:12:25.160Z,18.47
2018-11-03T02:17:46.901Z,19.77
2018-11-03T02:23:09.018Z,16.63
2018-11-03T02:28:30.810Z,19.30
2018-11-03T02:33:52.594Z,17.53
2018-11-03T02:39:14.641Z,22.60
2018-11-03T02:44:36.547Z,19.13
2018-11-03T02:49:58.750Z,18.57
2018-11-03T02:55:20.642Z,20.13
2018-11-03T03:00:43.013Z,20.73
2018-11-03T03:06:05.086Z,18.47
2018-11-03T03:11:27.222Z,16.70
2018-11-03T03:16:49.073Z,20.73
2018-11-03T03:22:10.650Z,17.00
2018-11-03T03:27:32.797Z,16.93
2018-11-03T03:32:54.555Z,16.67
2018-11-03T03:38:16.949Z,15.43
2018-11-03T03:43:39.297Z,15.70
2018-11-03T03:49:01.125Z,17.13
2018-11-03T03:54:22.894Z,16.80
2018-11-03T03:59:45.167Z,18.67
2018-11-03T04:05:06.972Z,15.70
2018-11-03T04:10:29.293Z,15.00
2018-11-03T04:15:51.126Z,16.73
2018-11-03T04:21:17.358Z,17.70
2018-11-03T04:26:39.705Z,17.60
2018-11-03T04:32:02.007Z,18.87
2018-11-03T04:37:23.903Z,17.30
2018-11-03T04:42:46.265Z,21.30
2018-11-03T04:48:08.042Z,19.43
2018-11-03T04:53:30.125Z,17.43
2018-11-03T04:58:52.212Z,15.63
2018-11-03T05:04:14.491Z,14.43
2018-11-03T05:09:36.345Z,16.70
2018-11-03T05:14:58.619Z,15.67
2018-11-03T05:20:20.417Z,17.10
2018-11-03T05:25:42.605Z,17.63
2018-11-03T05:31:04.688Z,8.97
2018-11-03T05:36:26.842Z,4.50
2018-11-03T05:41:49.978Z,10.77
2018-11-03T05:47:11.912Z,12.83
2018-11-03T05:52:33.925Z,8.53
2018-11-03T05:57:55.852Z,6.27
2018-11-03T06:03:17.988Z,3.50
2018-11-03T06:08:39.875Z,3.10
2018-11-03T06:14:02.001Z,3.17
2018-11-03T06:19:23.890Z,4.77
2018-11-03T06:24:45.993Z,1.43
2018-11-03T06:30:09.553Z,2.97
2018-11-03T06:35:31.707Z,4.47
2018-11-03T06:40:53.681Z,1.70
2018-11-03T06:46:15.929Z,2.57
2018-11-03T06:51:37.885Z,4.63
2018-11-03T06:56:59.911Z,3.27
2018-11-03T07:02:21.615Z,2.17
2018-11-03T07:07:43.906Z,3.50
2018-11-03T07:13:05.868Z,5.57
2018-11-03T07:18:27.979Z,2.77
2018-11-03T07:23:50.073Z,2.60
2018-11-03T07:29:12.177Z,3.20
2018-11-03T07:34:34.082Z,5.90
2018-11-03T07:39:56.153Z,4.20
2018-11-03T07:45:18.057Z,3.33
2018-11-03T07:50:40.129Z,3.53
2018-11-03T07:56:02.113Z,3.40
2018-11-03T08:01:24.257Z,3.20
2018-11-03T08:06:46.126Z,4.93
2018-11-03T08:12:08.234Z,4.37
2018-11-03T08:17:30.030Z,3.63
2018-11-03T08:22:51.784Z,5.77
2018-11-03T08:28:15.970Z,4.83
2018-11-03T08:33:38.053Z,3.40
2018-11-03T08:39:00.156Z,4.57
2018-11-03T08:44:22.253Z,3.37
2018-11-03T08:49:44.149Z,2.83
2018-11-03T08:55:06.582Z,1.60
2018-11-03T09:00:28.512Z,3.90
2018-11-03T09:05:50.693Z,3.10
2018-11-03T09:11:12.441Z,3.03
2018-11-03T09:16:35.296Z,4.17
2018-11-03T09:21:57.424Z,3.30
2018-11-03T09:27:20.881Z,3.53
2018-11-03T09:32:42.858Z,5.17
2018-11-03T09:38:05.101Z,7.87
2018-11-03T09:43:26.943Z,2.57
2018-11-03T09:48:49.029Z,4.27
2018-11-03T09:54:11.186Z,3.10
2018-11-03T09:59:33.188Z,3.10
2018-11-03T10:05:00.601Z,5.20
2018-11-03T10:10:23.518Z,3.07
2018-11-03T10:15:46.019Z,6.57
2018-11-03T10:21:07.973Z,6.37
2018-11-03T10:26:30.166Z,4.67
2018-11-03T10:31:51.960Z,5.23
2018-11-03T10:37:14.442Z,5.17
2018-11-03T10:42:36.153Z,6.10
2018-11-03T10:47:58.275Z,4.90
2018-11-03T10:53:20.138Z,3.53
2018-11-03T10:58:42.280Z,4.40
2018-11-03T11:04:08.896Z,4.67
2018-11-03T11:09:36.195Z,6.67
2018-11-03T11:14:58.549Z,6.23
2018-11-03T11:20:20.309Z,3.83
2018-11-03T11:25:42.518Z,3.67
2018-11-03T11:31:04.604Z,14.10
2018-11-03T11:36:26.718Z,4.30
2018-11-03T11:41:48.686Z,4.07
2018-11-03T11:47:10.840Z,12.17
2018-11-03T11:52:32.737Z,3.20
2018-11-03T11:57:54.822Z,3.47
2018-11-03T12:03:16.608Z,4.07
2018-11-03T12:08:38.808Z,5.97
2018-11-03T12:14:00.923Z,5.03
2018-11-03T12:19:23.179Z,6.80
2018-11-03T12:24:45.179Z,4.53
2018-11-03T12:30:08.249Z,5.10
2018-11-03T12:35:30.324Z,6.37
2018-11-03T12:40:51.981Z,7.93
2018-11-03T12:46:14.379Z,5.23
2018-11-03T12:51:36.134Z,7.77
2018-11-03T12:56:58.238Z,7.97
2018-11-03T13:02:20.415Z,5.67
2018-11-03T13:07:43.991Z,4.93
2018-11-03T13:13:06.041Z,3.50
2018-11-03T13:18:28.382Z,4.13
2018-11-03T13:23:50.069Z,5.77
2018-11-03T13:29:17.258Z,6.80
2018-11-03T13:34:39.373Z,5.17
2018-11-03T13:40:01.322Z,5.60
2018-11-03T13:45:23.046Z,5.17
2018-11-03T13:50:45.205Z,4.63
2018-11-03T13:56:07.098Z,4.53
2018-11-03T14:01:30.046Z,4.20
2018-11-03T14:06:52.366Z,5.10
2018-11-03T14:12:14.067Z,4.00
2018-11-03T14:17:36.213Z,6.03
2018-11-03T14:22:58.382Z,8.60
2018-11-03T14:28:20.535Z,6.17
2018-11-03T14:33:42.444Z,5.37
2018-11-03T14:39:05.577Z,5.87
2018-11-03T14:44:27.596Z,4.73
2018-11-03T14:49:49.373Z,4.43
2018-11-03T14:55:12.449Z,5.33
2018-11-03T15:00:36.118Z,6.87
2018-11-03T15:05:57.969Z,2.40
2018-11-03T15:11:20.174Z,4.90
2018-11-03T15:16:41.970Z,5.87
2018-11-03T15:22:03.694Z,3.93
2018-11-03T15:27:26.618Z,6.03
2018-11-03T15:32:48.793Z,5.23
2018-11-03T15:38:10.659Z,5.13
2018-11-03T15:43:32.743Z,6.47
2018-11-03T15:48:54.619Z,5.47
2018-11-03T15:54:16.341Z,4.50
2018-11-03T15:59:38.698Z,5.87
2018-11-03T16:05:00.767Z,3.97
2018-11-03T16:10:22.797Z,3.27
2018-11-03T16:15:44.577Z,5.67
2018-11-03T16:21:06.947Z,4.70
2018-11-03T16:26:28.729Z,6.07
2018-11-03T16:31:51.789Z,5.10
2018-11-03T16:37:13.855Z,4.50
2018-11-03T16:42:35.643Z,7.40
2018-11-03T16:47:57.430Z,6.23
2018-11-03T16:53:19.467Z,3.50
2018-11-03T16:58:41.452Z,5.43
2018-11-03T17:04:04.036Z,6.43
2018-11-03T17:09:25.807Z,8.37
2018-11-03T17:14:48.069Z,7.03
2018-11-03T17:20:10.543Z,3.50
2018-11-03T17:25:32.626Z,4.40
2018-11-03T17:31:00.373Z,4.67
2018-11-03T17:36:23.198Z,6.40
2018-11-03T17:41:45.224Z,3.00
2018-11-03T17:47:07.317Z,4.47
2018-11-03T17:52:29.668Z,6.40
2018-11-03T17:57:51.492Z,5.73
2018-11-03T18:03:13.494Z,6.50
2018-11-03T18:08:35.327Z,8.03
2018-11-03T18:13:57.801Z,6.13
2018-11-03T18:19:21.057Z,4.17
2018-11-03T18:24:43.097Z,4.80
2018-11-03T18:30:06.017Z,6.73
2018-11-03T18:35:28.063Z,7.83
2018-11-03T18:40:50.583Z,6.37
2018-11-03T18:46:24.865Z,6.47
2018-11-03T18:51:53.177Z,5.53
2018-11-03T18:57:15.621Z,2.87
2018-11-03T19:02:37.847Z,5.60
2018-11-03T19:07:59.572Z,7.40
2018-11-03T19:13:23.569Z,4.87
2018-11-03T19:18:45.377Z,4.47
2018-11-03T19:24:07.554Z,5.70
2018-11-03T19:29:34.227Z,5.20
2018-11-03T19:34:56.333Z,6.53
2018-11-03T19:40:18.232Z,6.07
2018-11-03T19:45:55.801Z,6.17
2018-11-03T19:51:17.676Z,7.67
2018-11-03T19:56:39.715Z,5.43
2018-11-03T20:02:01.486Z,5.20
2018-11-03T20:07:23.686Z,5.43
2018-11-03T20:12:45.562Z,3.60
2018-11-03T20:18:07.862Z,7.53
2018-11-03T20:23:29.645Z,5.30
2018-11-03T20:28:52.648Z,3.93
2018-11-03T20:34:14.713Z,7.07
2018-11-03T20:39:36.492Z,8.93
2018-11-03T20:44:58.701Z,4.90
2018-11-03T20:50:21.989Z,5.30
2018-11-03T20:55:43.665Z,4.57
2018-11-03T21:01:06.090Z,8.47
2018-11-03T21:06:27.766Z,5.67
2018-11-03T21:11:49.765Z,8.93
2018-11-03T21:17:11.637Z,8.63
2018-11-03T21:22:34.578Z,5.63
2018-11-03T21:27:56.710Z,7.10
2018-11-03T21:33:18.705Z,7.80
2018-11-03T21:38:40.942Z,6.93
2018-11-03T21:44:02.698Z,5.60
2018-11-03T21:49:24.896Z,6.97
2018-11-03T21:54:46.954Z,6.70
2018-11-03T22:00:10.401Z,7.43
2018-11-03T22:05:32.319Z,9.50
2018-11-03T22:10:54.058Z,7.60
2018-11-03T22:16:16.386Z,9.97
2018-11-03T22:21:38.104Z,6.80
2018-11-03T22:27:00.301Z,5.70
2018-11-03T22:32:22.193Z,6.57
2018-11-03T22:37:44.456Z,6.93
2018-11-03T22:43:06.097Z,4.63
2018-11-03T22:48:27.930Z,8.37
2018-11-03T22:53:49.521Z,8.17
2018-11-03T22:59:11.680Z,3.23
2018-11-03T23:04:33.517Z,7.13
2018-11-03T23:09:55.877Z,5.13
2018-11-03T23:15:17.744Z,6.97
2018-11-03T23:20:39.914Z,7.97
2018-11-03T23:26:01.855Z,5.17
2018-11-03T23:31:24.493Z,8.20
2018-11-03T23:36:46.222Z,8.63
2018-11-03T23:42:07.885Z,7.67
2018-11-03T23:47:29.850Z,7.00
2018-11-03T23:52:51.674Z,8.43
2018-11-03T23:58:13.265Z,8.53
